»·PEaware :: AAL233 KMIA-SBGR

AAL233 :: KMIA-SBGR

FLIGHT INFORMATION

Flight Status: Arrived
Operator:
American Airlines
More flights by this operator :: More flights under this callsign
Pilot: Drew L. (13237)
Aircraft: Unknown
(B77W)
More flights by this aircraft type
Origin: KMIA Miami Intl
United States
Destination: SBGR Guarulhos Intl.
Brazil
More flights between these airports :: More routes between these airports
Route: SKIPS2 SKIPS FORST JOSES UL304 IRGUT/N0489F350 UL304 TAROP/N0486F370 UL304 EGONI UL795 ETAXI UZ38 MOXEP MOXE1A
File this flight plan on PilotEdge
Remarks: PBN / A1B1C1D1L1O1S2 DOF / 180319 REG / N713SB EET / MTEG0101 MDCS0113 TNCF0137 SVZM0203 SBAZ0316 SBBS0540 SBCW0736 OPR / AAL PER / D RMK / TCAS SIMBRIEF
Altitude:
(Current/Filed)
33,000ft
Speed:
(Current/Filed)
489kts
Departed: 19-Mar-18 09:39 AM
Arrived: 19-Mar-18 05:08 PM
Distance/Time
Traveled:
3547nm/7:28
Distance/Time
To Go:
Arrived

Flight Plot

Page will automatically refresh every two minutes.

Flight plan parsing failed; only flown route is shown


Map Options




Map Legend


Flown Route
Filed Route
Departure Airport
Arrival Airport
Navaid (VOR, NDB)
Fix

Horizontal Profiles

Position Reports

Time Latitude Longitude Heading Altitude Ground
Speed
19-Mar-18 09:32 25.799741 -80.299652 286 21ft 0kts
19-Mar-18 09:33 25.799741 -80.299652 286 21ft 0kts
19-Mar-18 09:34 25.799741 -80.299652 286 21ft 0kts
19-Mar-18 09:35 25.799741 -80.299653 286 21ft 0kts
19-Mar-18 09:36 25.799741 -80.299653 286 21ft 0kts
19-Mar-18 09:37 25.800688 -80.300664 74 21ft 9kts
19-Mar-18 09:38 25.801989 -80.269920 87 116ft 198kts
19-Mar-18 09:39 25.783957 -80.208038 123 2474ft 243kts
19-Mar-18 09:40 25.767120 -80.179836 125 3618ft 261kts
19-Mar-18 09:41 25.745206 -80.129954 111 5608ft 284kts
19-Mar-18 09:42 25.721458 -80.043409 107 8692ft 302kts
19-Mar-18 09:43 25.698478 -79.948646 100 10872ft 346kts
19-Mar-18 09:44 25.676363 -79.833055 101 12302ft 412kts
19-Mar-18 09:45 25.650653 -79.704862 101 14730ft 438kts
19-Mar-18 09:46 25.620963 -79.570987 103 17153ft 457kts
19-Mar-18 09:47 25.589483 -79.431380 104 19344ft 475kts
19-Mar-18 09:48 25.552110 -79.288587 116 21269ft 491kts
19-Mar-18 09:49 25.471452 -79.165772 135 23072ft 498kts
19-Mar-18 09:50 25.378214 -79.050084 135 24694ft 511kts
19-Mar-18 09:51 25.283813 -78.930199 134 26248ft 523kts
19-Mar-18 09:52 25.187033 -78.807099 134 27627ft 535kts
19-Mar-18 09:53 25.088373 -78.682158 134 28922ft 545kts
19-Mar-18 09:54 24.987825 -78.555192 134 30033ft 555kts
19-Mar-18 09:55 24.886056 -78.427029 135 31455ft 554kts
19-Mar-18 09:56 24.784476 -78.299462 135 32667ft 555kts
19-Mar-18 09:57 24.682408 -78.171628 135 32993ft 554kts
19-Mar-18 09:58 24.580829 -78.044738 135 32994ft 553kts
19-Mar-18 09:59 24.479194 -77.918129 135 32993ft 553kts
19-Mar-18 10:00 24.377197 -77.791400 135 32992ft 553kts
19-Mar-18 10:01 24.275501 -77.665374 135 32991ft 552kts
19-Mar-18 10:02 24.173761 -77.539632 135 32991ft 552kts
19-Mar-18 10:03 24.071354 -77.413389 135 32990ft 553kts
19-Mar-18 10:04 23.969164 -77.287757 135 32984ft 553kts
19-Mar-18 10:05 23.866968 -77.162416 135 32980ft 550kts
19-Mar-18 10:06 23.765056 -77.037752 135 32979ft 551kts
19-Mar-18 10:07 23.663006 -76.913240 135 32977ft 551kts
19-Mar-18 10:08 23.560505 -76.788493 135 32976ft 550kts
19-Mar-18 10:09 23.458268 -76.664383 135 32975ft 551kts
19-Mar-18 10:10 23.355874 -76.540393 135 32974ft 551kts
19-Mar-18 10:11 23.253046 -76.416188 135 32973ft 551kts
19-Mar-18 10:12 23.150644 -76.292802 135 32973ft 550kts
19-Mar-18 10:13 23.047817 -76.169214 135 32973ft 550kts
19-Mar-18 10:14 22.945294 -76.046283 135 32972ft 549kts
19-Mar-18 10:15 22.842496 -75.923329 135 32972ft 549kts
19-Mar-18 10:16 22.739907 -75.800922 135 32971ft 548kts
19-Mar-18 10:17 22.637377 -75.678884 135 32971ft 548kts
19-Mar-18 10:18 22.534523 -75.556740 135 32967ft 548kts
19-Mar-18 10:19 22.432030 -75.435308 135 32965ft 547kts
19-Mar-18 10:20 22.329425 -75.314046 135 32965ft 547kts
19-Mar-18 10:21 22.226469 -75.192469 135 32965ft 547kts
19-Mar-18 10:22 22.123619 -75.071631 135 32964ft 547kts
19-Mar-18 10:23 22.012646 -74.960840 143 33713ft 541kts
19-Mar-18 10:24 21.899203 -74.855467 142 34915ft 537kts
19-Mar-18 10:25 21.787221 -74.749387 142 34963ft 536kts
19-Mar-18 10:26 21.675032 -74.643238 142 34990ft 536kts
19-Mar-18 10:27 21.563105 -74.537658 142 34991ft 536kts
19-Mar-18 10:28 21.451089 -74.432230 142 34991ft 536kts
19-Mar-18 10:29 21.338670 -74.326648 142 34992ft 536kts
19-Mar-18 10:30 21.226692 -74.221701 142 34993ft 535kts
19-Mar-18 10:31 21.114761 -74.117021 142 34995ft 534kts
19-Mar-18 10:32 21.002535 -74.012268 142 34999ft 534kts
19-Mar-18 10:33 20.890636 -73.908057 142 35001ft 534kts
19-Mar-18 10:34 20.778414 -73.803750 142 35005ft 533kts
19-Mar-18 10:35 20.666576 -73.700011 142 35006ft 533kts
19-Mar-18 10:36 20.554772 -73.596511 142 35012ft 532kts
19-Mar-18 10:37 20.442646 -73.492913 142 35020ft 532kts
19-Mar-18 10:38 20.330893 -73.389707 142 35029ft 532kts
19-Mar-18 10:39 20.218875 -73.286728 142 35039ft 533kts
19-Mar-18 10:40 20.105697 -73.184534 144 35051ft 531kts
19-Mar-18 10:41 19.988761 -73.089111 145 35063ft 531kts
19-Mar-18 10:42 19.872090 -72.992925 145 35073ft 529kts
19-Mar-18 10:43 19.756140 -72.896845 145 35083ft 529kts
19-Mar-18 10:44 19.640090 -72.801084 145 35062ft 528kts
19-Mar-18 10:45 19.523556 -72.705130 145 35062ft 530kts
19-Mar-18 10:46 19.407172 -72.609482 145 35056ft 530kts
19-Mar-18 10:47 19.290964 -72.514153 145 35040ft 528kts
19-Mar-18 10:48 19.174542 -72.418823 145 35014ft 528kts
19-Mar-18 10:49 19.058414 -72.323914 145 34979ft 528kts
19-Mar-18 10:50 18.941969 -72.228914 145 34948ft 527kts
19-Mar-18 10:51 18.825934 -72.134403 145 34929ft 527kts
19-Mar-18 10:52 18.709982 -72.040016 145 34921ft 526kts
19-Mar-18 10:53 18.593585 -71.945641 145 34923ft 527kts
19-Mar-18 10:54 18.477241 -71.851878 145 34918ft 526kts
19-Mar-18 10:55 18.360341 -71.759181 145 34928ft 527kts
19-Mar-18 10:56 18.243079 -71.666240 145 34938ft 527kts
19-Mar-18 10:57 18.126293 -71.573461 145 34948ft 527kts
19-Mar-18 10:58 18.009088 -71.480716 145 34953ft 526kts
19-Mar-18 10:59 17.892359 -71.388513 145 34956ft 525kts
19-Mar-18 11:00 17.775546 -71.296420 145 34956ft 526kts
19-Mar-18 11:01 17.658349 -71.204155 145 34957ft 525kts
19-Mar-18 11:02 17.541735 -71.112513 145 34952ft 525kts
19-Mar-18 11:03 17.424694 -71.020604 145 34955ft 524kts
19-Mar-18 11:04 17.307929 -70.929219 145 34953ft 525kts
19-Mar-18 11:05 17.191048 -70.837939 145 34951ft 525kts
19-Mar-18 11:06 17.073676 -70.746447 145 34949ft 525kts
19-Mar-18 11:07 16.956801 -70.655269 145 34946ft 525kts
19-Mar-18 11:08 16.839998 -70.564302 145 34935ft 524kts
19-Mar-18 11:09 16.722817 -70.473255 145 34931ft 523kts
19-Mar-18 11:10 16.606216 -70.382805 145 34928ft 523kts
19-Mar-18 11:11 16.489531 -70.292429 145 34926ft 522kts
19-Mar-18 11:12 16.372635 -70.202026 145 34924ft 522kts
19-Mar-18 11:13 16.256043 -70.111983 145 34922ft 522kts
19-Mar-18 11:14 16.139078 -70.021722 146 34922ft 522kts
19-Mar-18 11:15 16.022384 -69.931958 146 34917ft 522kts
19-Mar-18 11:16 15.901889 -69.848734 151 34914ft 520kts
19-Mar-18 11:17 15.778344 -69.769749 150 34912ft 520kts
19-Mar-18 11:18 15.655878 -69.689993 150 34909ft 520kts
19-Mar-18 11:19 15.533605 -69.610238 150 34908ft 520kts
19-Mar-18 11:20 15.410877 -69.530342 150 34908ft 519kts
19-Mar-18 11:21 15.288623 -69.450896 150 34903ft 519kts
19-Mar-18 11:22 15.165987 -69.371307 150 34901ft 518kts
19-Mar-18 11:23 15.043900 -69.292183 150 34899ft 518kts
19-Mar-18 11:24 14.921881 -69.213210 150 34897ft 518kts
19-Mar-18 11:25 14.799523 -69.134113 150 34895ft 517kts
19-Mar-18 11:26 14.677504 -69.055364 150 34893ft 518kts
19-Mar-18 11:27 14.575941 -68.989889 150 34892ft 517kts
19-Mar-18 11:28 14.433311 -68.898052 150 34908ft 517kts
19-Mar-18 11:29 14.311107 -68.819493 150 34906ft 516kts
19-Mar-18 11:30 14.209629 -68.754330 150 34904ft 516kts
19-Mar-18 11:31 14.067623 -68.663258 150 34901ft 516kts
19-Mar-18 11:32 13.965843 -68.598070 150 34900ft 515kts
19-Mar-18 11:33 13.844348 -68.520333 150 34899ft 514kts
19-Mar-18 11:34 13.702642 -68.429800 150 34898ft 514kts
19-Mar-18 11:35 13.601016 -68.364951 150 34897ft 514kts
19-Mar-18 11:36 13.479563 -68.287537 150 34897ft 514kts
19-Mar-18 11:37 13.357674 -68.209937 150 34907ft 514kts
19-Mar-18 11:38 13.236276 -68.132746 150 34906ft 513kts
19-Mar-18 11:39 13.114525 -68.055421 150 34905ft 513kts
19-Mar-18 11:40 12.993346 -67.978546 150 34905ft 512kts
19-Mar-18 11:41 12.872231 -67.901807 150 34904ft 512kts
19-Mar-18 11:42 12.750836 -67.824966 150 34907ft 511kts
19-Mar-18 11:43 12.629979 -67.748573 150 34904ft 511kts
19-Mar-18 11:44 12.509122 -67.672257 150 34903ft 511kts
19-Mar-18 11:45 12.387862 -67.595771 150 34900ft 511kts
19-Mar-18 11:46 12.266935 -67.519578 150 34899ft 511kts
19-Mar-18 11:47 12.145659 -67.443250 150 34896ft 511kts
19-Mar-18 11:48 12.024802 -67.367267 150 34899ft 511kts
19-Mar-18 11:49 11.903892 -67.291334 150 34895ft 510kts
19-Mar-18 11:50 11.782839 -67.215390 150 34881ft 509kts
19-Mar-18 11:51 11.662182 -67.139774 150 34882ft 509kts
19-Mar-18 11:52 11.541696 -67.064342 150 34882ft 508kts
19-Mar-18 11:53 11.420815 -66.988741 150 34882ft 508kts
19-Mar-18 11:54 11.300341 -66.913470 150 34878ft 508kts
19-Mar-18 11:55 11.179415 -66.837993 150 34877ft 508kts
19-Mar-18 11:56 11.058908 -66.762847 150 34877ft 509kts
19-Mar-18 11:57 10.938332 -66.687739 150 34876ft 508kts
19-Mar-18 11:58 10.817498 -66.612540 150 34876ft 508kts
19-Mar-18 11:59 10.697048 -66.537651 150 34876ft 508kts
19-Mar-18 12:00 10.576602 -66.462837 150 34877ft 508kts
19-Mar-18 12:01 10.455874 -66.387915 150 34882ft 507kts
19-Mar-18 12:02 10.335591 -66.313339 150 34884ft 507kts
19-Mar-18 12:03 10.214988 -66.238623 150 34885ft 507kts
19-Mar-18 12:04 10.094696 -66.164183 150 34895ft 507kts
19-Mar-18 12:05 9.974442 -66.089824 150 34881ft 507kts
19-Mar-18 12:06 9.853707 -66.015237 150 34880ft 507kts
19-Mar-18 12:07 9.733352 -65.940947 150 34881ft 507kts
19-Mar-18 12:08 9.613014 -65.866730 150 34862ft 507kts
19-Mar-18 12:09 9.492359 -65.792381 150 34859ft 506kts
19-Mar-18 12:10 9.372199 -65.718398 150 34856ft 506kts
19-Mar-18 12:11 9.252040 -65.644477 150 34853ft 505kts
19-Mar-18 12:12 9.131666 -65.570483 150 34851ft 505kts
19-Mar-18 12:13 9.011659 -65.496773 150 34848ft 505kts
19-Mar-18 12:14 8.891447 -65.422996 150 34845ft 504kts
19-Mar-18 12:15 8.771580 -65.349488 150 34843ft 504kts
19-Mar-18 12:16 8.651759 -65.276064 150 34840ft 504kts
19-Mar-18 12:17 8.531705 -65.202552 150 34838ft 503kts
19-Mar-18 12:18 8.412021 -65.129315 150 34836ft 503kts
19-Mar-18 12:19 8.292390 -65.056176 150 34825ft 503kts
19-Mar-18 12:20 8.172343 -64.982828 150 34822ft 503kts
19-Mar-18 12:21 8.052790 -64.909837 150 34820ft 503kts
19-Mar-18 12:22 7.932895 -64.836690 150 34818ft 501kts
19-Mar-18 12:23 7.813770 -64.764056 150 34816ft 501kts
19-Mar-18 12:24 7.694617 -64.691460 150 34814ft 501kts
19-Mar-18 12:25 7.575127 -64.618706 150 34813ft 501kts
19-Mar-18 12:26 7.456003 -64.546216 150 34811ft 501kts
19-Mar-18 12:27 7.336839 -64.473758 150 34810ft 501kts
19-Mar-18 12:28 7.217348 -64.401143 150 34808ft 500kts
19-Mar-18 12:29 7.098243 -64.328805 150 34806ft 500kts
19-Mar-18 12:30 6.978796 -64.256299 150 34805ft 500kts
19-Mar-18 12:31 6.859793 -64.184117 150 34805ft 500kts
19-Mar-18 12:32 6.740773 -64.111968 150 34804ft 500kts
19-Mar-18 12:33 6.621369 -64.039625 150 34803ft 500kts
19-Mar-18 12:34 6.502491 -63.967623 150 34806ft 499kts
19-Mar-18 12:35 6.383549 -63.895655 150 34801ft 499kts
19-Mar-18 12:36 6.264201 -63.823467 150 34800ft 499kts
19-Mar-18 12:37 6.145282 -63.751576 150 34779ft 500kts
19-Mar-18 12:38 6.025934 -63.679461 150 34776ft 499kts
19-Mar-18 12:39 5.907019 -63.607651 150 34775ft 499kts
19-Mar-18 12:40 5.788193 -63.535927 150 34775ft 499kts
19-Mar-18 12:41 5.669067 -63.464054 149 34774ft 498kts
19-Mar-18 12:42 5.550368 -63.392482 149 34774ft 498kts
19-Mar-18 12:43 5.431827 -63.321035 149 34775ft 497kts
19-Mar-18 12:44 5.312945 -63.249417 149 34775ft 497kts
19-Mar-18 12:45 5.194577 -63.178136 149 34775ft 496kts
19-Mar-18 12:46 5.075949 -63.106734 149 34775ft 496kts
19-Mar-18 12:47 4.957718 -63.035604 149 34774ft 496kts
19-Mar-18 12:48 4.839602 -62.964573 149 34774ft 496kts
19-Mar-18 12:49 4.721093 -62.893331 149 34774ft 495kts
19-Mar-18 12:50 4.603070 -62.822414 149 34773ft 495kts
19-Mar-18 12:51 4.485015 -62.751501 149 34773ft 495kts
19-Mar-18 12:52 4.366680 -62.680447 149 34772ft 495kts
19-Mar-18 12:53 4.248760 -62.609669 149 34771ft 494kts
19-Mar-18 12:54 4.130374 -62.538642 149 34771ft 495kts
19-Mar-18 12:55 4.012423 -62.467897 149 34770ft 495kts
19-Mar-18 12:56 3.894212 -62.397018 149 34769ft 493kts
19-Mar-18 12:57 3.776594 -62.326514 149 34768ft 493kts
19-Mar-18 12:58 3.658895 -62.255985 149 34768ft 493kts
19-Mar-18 12:59 3.540875 -62.185303 149 34765ft 493kts
19-Mar-18 13:00 3.423223 -62.114852 149 34765ft 493kts
19-Mar-18 13:01 3.305858 -62.044592 149 34764ft 492kts
19-Mar-18 13:02 3.188234 -61.974196 149 34763ft 490kts
19-Mar-18 13:03 3.071452 -61.904322 149 34762ft 489kts
19-Mar-18 13:04 2.954878 -61.834593 149 34762ft 488kts
19-Mar-18 13:05 2.838170 -61.764800 149 34761ft 487kts
19-Mar-18 13:06 2.722104 -61.695406 149 34756ft 486kts
19-Mar-18 13:07 2.605753 -61.625854 149 34756ft 485kts
19-Mar-18 13:08 2.489940 -61.556648 149 34756ft 485kts
19-Mar-18 13:09 2.374110 -61.487439 149 34756ft 485kts
19-Mar-18 13:10 2.258041 -61.418105 149 34757ft 484kts
19-Mar-18 13:11 2.142442 -61.349061 149 34753ft 484kts
19-Mar-18 13:12 2.026846 -61.280034 149 34756ft 484kts
19-Mar-18 13:13 1.911063 -61.210903 149 34756ft 482kts
19-Mar-18 13:14 1.795969 -61.142200 149 34756ft 482kts
19-Mar-18 13:15 1.680514 -61.073290 149 34756ft 482kts
19-Mar-18 13:16 1.565433 -61.004611 149 34756ft 481kts
19-Mar-18 13:17 1.450610 -60.936091 149 34756ft 481kts
19-Mar-18 13:18 1.335364 -60.867335 149 34755ft 481kts
19-Mar-18 13:19 1.220510 -60.798817 149 34755ft 481kts
19-Mar-18 13:20 1.105629 -60.730290 149 34755ft 481kts
19-Mar-18 13:21 0.990499 -60.661620 149 34762ft 480kts
19-Mar-18 13:22 0.875903 -60.593275 149 34763ft 479kts
19-Mar-18 13:23 0.761113 -60.524818 149 34763ft 479kts
19-Mar-18 13:24 0.646686 -60.456583 149 34763ft 479kts
19-Mar-18 13:25 0.532233 -60.388332 149 34762ft 479kts
19-Mar-18 13:26 0.417423 -60.319876 149 34764ft 480kts
19-Mar-18 13:27 0.302934 -60.251614 149 34764ft 480kts
19-Mar-18 13:28 0.188463 -60.183363 149 34763ft 480kts
19-Mar-18 13:29 0.073578 -60.114866 149 34763ft 480kts
19-Mar-18 13:30 -0.040884 -60.046614 149 34763ft 480kts
19-Mar-18 13:31 -0.155778 -59.978118 149 34764ft 480kts
19-Mar-18 13:32 -0.270255 -59.909864 149 34772ft 480kts
19-Mar-18 13:33 -0.384766 -59.841589 149 34772ft 480kts
19-Mar-18 13:34 -0.499652 -59.773086 148 34772ft 479kts
19-Mar-18 13:35 -0.613927 -59.704946 148 34772ft 479kts
19-Mar-18 13:36 -0.728222 -59.636786 148 34772ft 479kts
19-Mar-18 13:37 -0.842778 -59.568474 148 34772ft 478kts
19-Mar-18 13:38 -0.956810 -59.500467 148 34770ft 477kts
19-Mar-18 13:39 -1.071061 -59.432323 148 34770ft 477kts
19-Mar-18 13:40 -1.185021 -59.364345 148 34771ft 477kts
19-Mar-18 13:41 -1.279893 -59.307751 148 34771ft 476kts
19-Mar-18 13:42 -1.412935 -59.228374 148 34772ft 477kts
19-Mar-18 13:43 -1.526625 -59.160540 148 34772ft 476kts
19-Mar-18 13:44 -1.621259 -59.104068 148 34773ft 476kts
19-Mar-18 13:45 -1.754158 -59.024750 148 34774ft 476kts
19-Mar-18 13:46 -1.867754 -58.956942 148 34775ft 476kts
19-Mar-18 13:47 -1.962799 -58.900194 148 34776ft 476kts
19-Mar-18 13:48 -2.076385 -58.832374 147 34778ft 476kts
19-Mar-18 13:49 -2.208839 -58.753276 147 34778ft 476kts
19-Mar-18 13:50 -2.303788 -58.696563 147 34780ft 476kts
19-Mar-18 13:51 -2.417292 -58.628754 147 34781ft 477kts
19-Mar-18 13:52 -2.531026 -58.560779 147 34779ft 476kts
19-Mar-18 13:53 -2.645039 -58.492651 147 34784ft 476kts
19-Mar-18 13:54 -2.758707 -58.424703 147 34786ft 476kts
19-Mar-18 13:55 -2.872918 -58.356416 148 34786ft 477kts
19-Mar-18 13:56 -2.986651 -58.288397 148 34786ft 477kts
19-Mar-18 13:57 -3.100498 -58.220285 148 34786ft 478kts
19-Mar-18 13:58 -3.214796 -58.151901 148 34786ft 477kts
19-Mar-18 13:59 -3.328704 -58.083726 148 34785ft 478kts
19-Mar-18 14:00 -3.442686 -58.015488 148 34785ft 478kts
19-Mar-18 14:01 -3.556995 -57.947034 148 34783ft 477kts
19-Mar-18 14:02 -3.671136 -57.878661 148 34782ft 478kts
19-Mar-18 14:03 -3.785213 -57.810306 148 34780ft 478kts
19-Mar-18 14:04 -3.899697 -57.741676 148 34781ft 478kts
19-Mar-18 14:05 -4.013776 -57.673282 148 34779ft 478kts
19-Mar-18 14:06 -4.128246 -57.604628 148 34778ft 478kts
19-Mar-18 14:07 -4.242328 -57.536182 148 34776ft 478kts
19-Mar-18 14:08 -4.356355 -57.467744 148 34777ft 478kts
19-Mar-18 14:09 -4.470743 -57.399064 148 34776ft 477kts
19-Mar-18 14:10 -4.584581 -57.330690 148 34776ft 477kts
19-Mar-18 14:11 -4.698451 -57.262270 148 34775ft 477kts
19-Mar-18 14:12 -4.812570 -57.193666 148 34777ft 477kts
19-Mar-18 14:13 -4.926426 -57.125201 148 34778ft 477kts
19-Mar-18 14:14 -5.040645 -57.056499 148 34776ft 477kts
19-Mar-18 14:15 -5.154387 -56.988049 148 34777ft 477kts
19-Mar-18 14:16 -5.268252 -56.919490 148 34778ft 478kts
19-Mar-18 14:17 -5.382559 -56.850643 148 34779ft 478kts
19-Mar-18 14:18 -5.496636 -56.781901 148 34780ft 478kts
19-Mar-18 14:19 -5.610679 -56.713147 148 34781ft 478kts
19-Mar-18 14:20 -5.725030 -56.644175 148 34782ft 479kts
19-Mar-18 14:21 -5.839330 -56.575204 148 34783ft 479kts
19-Mar-18 14:22 -5.953898 -56.506036 148 34784ft 479kts
19-Mar-18 14:23 -6.068131 -56.437037 148 34785ft 480kts
19-Mar-18 14:24 -6.182362 -56.368004 148 34786ft 479kts
19-Mar-18 14:25 -6.296945 -56.298723 148 34790ft 479kts
19-Mar-18 14:26 -6.411300 -56.229545 148 34793ft 480kts
19-Mar-18 14:27 -6.525705 -56.160299 148 34795ft 480kts
19-Mar-18 14:28 -6.640530 -56.090761 148 34797ft 481kts
19-Mar-18 14:29 -6.754980 -56.021412 148 34800ft 482kts
19-Mar-18 14:30 -6.870042 -55.951653 148 34813ft 481kts
19-Mar-18 14:31 -6.984592 -55.882165 148 34817ft 482kts
19-Mar-18 14:32 -7.099451 -55.812450 148 34820ft 482kts
19-Mar-18 14:33 -7.214787 -55.742403 148 34823ft 484kts
19-Mar-18 14:34 -7.329855 -55.672474 148 34827ft 483kts
19-Mar-18 14:35 -7.444997 -55.602462 148 34830ft 484kts
19-Mar-18 14:36 -7.560665 -55.532085 148 34833ft 484kts
19-Mar-18 14:37 -7.675956 -55.461892 148 34837ft 485kts
19-Mar-18 14:38 -7.791627 -55.391413 148 34842ft 484kts
19-Mar-18 14:39 -7.906892 -55.321154 148 34843ft 485kts
19-Mar-18 14:40 -8.022130 -55.250858 148 34851ft 485kts
19-Mar-18 14:41 -8.137849 -55.180217 148 34855ft 485kts
19-Mar-18 14:42 -8.253200 -55.109754 148 34857ft 485kts
19-Mar-18 14:43 -8.368508 -55.039266 148 34860ft 485kts
19-Mar-18 14:44 -8.484217 -54.968477 148 34865ft 485kts
19-Mar-18 14:45 -8.599468 -54.897935 148 34874ft 485kts
19-Mar-18 14:46 -8.714543 -54.827438 148 34875ft 484kts
19-Mar-18 14:47 -8.830015 -54.756691 148 34875ft 484kts
19-Mar-18 14:48 -8.945076 -54.686058 148 34873ft 484kts
19-Mar-18 14:49 -9.061182 -54.616389 151 34875ft 484kts
19-Mar-18 14:50 -9.182586 -54.557415 153 34875ft 484kts
19-Mar-18 14:51 -9.303612 -54.498182 152 34875ft 484kts
19-Mar-18 14:52 -9.424930 -54.438255 152 34872ft 484kts
19-Mar-18 14:53 -9.545732 -54.378423 152 34870ft 484kts
19-Mar-18 14:54 -9.666479 -54.318534 152 34869ft 484kts
19-Mar-18 14:55 -9.787643 -54.258390 152 34868ft 484kts
19-Mar-18 14:56 -9.908323 -54.198434 152 34876ft 483kts
19-Mar-18 14:57 -10.029021 -54.138419 152 34878ft 483kts
19-Mar-18 14:58 -10.150071 -54.078177 152 34877ft 483kts
19-Mar-18 14:59 -10.270741 -54.018076 152 34879ft 484kts
19-Mar-18 15:00 -10.391817 -53.957722 152 34873ft 483kts
19-Mar-18 15:01 -10.512327 -53.897596 152 34872ft 483kts
19-Mar-18 15:02 -10.632827 -53.837423 152 34871ft 482kts
19-Mar-18 15:03 -10.753475 -53.777123 152 34870ft 482kts
19-Mar-18 15:04 -10.873617 -53.717022 152 34870ft 481kts
19-Mar-18 15:05 -10.993661 -53.656916 152 34868ft 481kts
19-Mar-18 15:06 -11.114028 -53.596592 152 34868ft 481kts
19-Mar-18 15:07 -11.233978 -53.536418 152 34867ft 481kts
19-Mar-18 15:08 -11.354254 -53.476031 152 34865ft 481kts
19-Mar-18 15:09 -11.474129 -53.415787 151 34864ft 481kts
19-Mar-18 15:10 -11.594041 -53.355466 151 34863ft 481kts
19-Mar-18 15:11 -11.714136 -53.294994 151 34862ft 480kts
19-Mar-18 15:12 -11.833814 -53.234670 151 34861ft 480kts
19-Mar-18 15:13 -11.953525 -53.174277 151 34859ft 480kts
19-Mar-18 15:14 -12.073573 -53.113651 151 34858ft 480kts
19-Mar-18 15:15 -12.193232 -53.053156 151 34857ft 480kts
19-Mar-18 15:16 -12.313206 -52.992449 151 34855ft 480kts
19-Mar-18 15:17 -12.432799 -52.931868 151 34854ft 480kts
19-Mar-18 15:18 -12.552351 -52.871246 151 34852ft 480kts
19-Mar-18 15:19 -12.672321 -52.810348 151 34850ft 480kts
19-Mar-18 15:20 -12.791815 -52.749617 151 34850ft 480kts
19-Mar-18 15:21 -12.911290 -52.688851 151 34847ft 479kts
19-Mar-18 15:22 -13.030982 -52.627896 151 34845ft 479kts
19-Mar-18 15:23 -13.150346 -52.567050 151 34844ft 480kts
19-Mar-18 15:24 -13.269975 -52.505994 151 34842ft 479kts
19-Mar-18 15:25 -13.389143 -52.445115 151 34841ft 479kts
19-Mar-18 15:26 -13.508219 -52.384210 151 34839ft 478kts
19-Mar-18 15:27 -13.627669 -52.323045 151 34873ft 479kts
19-Mar-18 15:28 -13.746718 -52.262017 151 34871ft 479kts
19-Mar-18 15:29 -13.865739 -52.200933 151 34869ft 478kts
19-Mar-18 15:30 -13.985048 -52.139630 151 34866ft 478kts
19-Mar-18 15:31 -14.103887 -52.078494 151 34864ft 478kts
19-Mar-18 15:32 -14.223197 -52.017050 151 34861ft 478kts
19-Mar-18 15:33 -14.342100 -51.955741 151 34859ft 478kts
19-Mar-18 15:34 -14.461021 -51.894349 151 34857ft 479kts
19-Mar-18 15:35 -14.580521 -51.832584 151 34854ft 479kts
19-Mar-18 15:36 -14.699668 -51.770925 150 34852ft 480kts
19-Mar-18 15:37 -14.818970 -51.709095 150 34844ft 480kts
19-Mar-18 15:38 -14.938753 -51.646955 150 34844ft 481kts
19-Mar-18 15:39 -15.058347 -51.584847 150 34841ft 482kts
19-Mar-18 15:40 -15.178403 -51.522405 150 34841ft 482kts
19-Mar-18 15:41 -15.298291 -51.459974 150 34842ft 483kts
19-Mar-18 15:42 -15.418256 -51.397424 150 34842ft 483kts
19-Mar-18 15:43 -15.538624 -51.334579 150 34845ft 483kts
19-Mar-18 15:44 -15.658626 -51.271843 150 34847ft 483kts
19-Mar-18 15:45 -15.778600 -51.209034 150 34851ft 484kts
19-Mar-18 15:46 -15.899025 -51.145913 150 34857ft 484kts
19-Mar-18 15:47 -16.019004 -51.082932 150 34863ft 484kts
19-Mar-18 15:48 -16.139732 -51.019479 150 34871ft 485kts
19-Mar-18 15:49 -16.260058 -50.956150 150 34905ft 485kts
19-Mar-18 15:50 -16.380336 -50.892757 150 34926ft 485kts
19-Mar-18 15:51 -16.500949 -50.829092 150 34934ft 485kts
19-Mar-18 15:52 -16.620812 -50.765729 150 34958ft 482kts
19-Mar-18 15:53 -16.740366 -50.702596 150 34927ft 485kts
19-Mar-18 15:54 -16.860976 -50.638553 150 34933ft 485kts
19-Mar-18 15:55 -16.981242 -50.574705 150 34939ft 485kts
19-Mar-18 15:56 -17.101844 -50.510595 150 34944ft 486kts
19-Mar-18 15:57 -17.222112 -50.446569 150 34950ft 485kts
19-Mar-18 15:58 -17.342418 -50.382429 150 34954ft 486kts
19-Mar-18 15:59 -17.443131 -50.328662 151 34959ft 486kts
19-Mar-18 16:00 -17.583559 -50.253579 151 34964ft 486kts
19-Mar-18 16:01 -17.683916 -50.199840 151 34969ft 486kts
19-Mar-18 16:02 -17.804727 -50.135135 151 34974ft 487kts
19-Mar-18 16:03 -17.925143 -50.070399 151 34980ft 487kts
19-Mar-18 16:04 -18.036098 -49.991594 132 34987ft 483kts
19-Mar-18 16:05 -18.140434 -49.868458 130 35002ft 483kts
19-Mar-18 16:06 -18.215548 -49.781417 131 35010ft 482kts
19-Mar-18 16:07 -18.306012 -49.676755 131 35023ft 482kts
19-Mar-18 16:08 -18.395954 -49.572208 131 35029ft 482kts
19-Mar-18 16:09 -18.485747 -49.467694 131 35040ft 481kts
19-Mar-18 16:10 -18.575695 -49.362820 131 35041ft 480kts
19-Mar-18 16:11 -18.665072 -49.258372 131 35052ft 480kts
19-Mar-18 16:12 -18.754622 -49.153537 131 35069ft 482kts
19-Mar-18 16:13 -18.844663 -49.048392 131 35075ft 481kts
19-Mar-18 16:14 -18.934157 -48.943425 131 35059ft 481kts
19-Mar-18 16:15 -19.023971 -48.838062 131 35063ft 481kts
19-Mar-18 16:16 -19.113386 -48.732650 131 35065ft 482kts
19-Mar-18 16:17 -19.203142 -48.626750 131 35062ft 482kts
19-Mar-18 16:18 -19.292611 -48.521207 131 35055ft 482kts
19-Mar-18 16:19 -19.381879 -48.415373 131 35038ft 482kts
19-Mar-18 16:20 -19.471445 -48.309139 131 35015ft 482kts
19-Mar-18 16:21 -19.560684 -48.203134 131 34991ft 482kts
19-Mar-18 16:22 -19.649952 -48.097110 131 34974ft 482kts
19-Mar-18 16:23 -19.739328 -47.990414 130 34964ft 482kts
19-Mar-18 16:24 -19.808079 -47.868769 115 34964ft 483kts
19-Mar-18 16:25 -19.866329 -47.740020 116 34966ft 483kts
19-Mar-18 16:26 -19.924954 -47.611880 116 34972ft 483kts
19-Mar-18 16:27 -19.983463 -47.483855 116 34978ft 481kts
19-Mar-18 16:28 -20.042252 -47.355326 116 34984ft 483kts
19-Mar-18 16:29 -20.100601 -47.226857 116 34991ft 482kts
19-Mar-18 16:30 -20.158895 -47.098454 116 34992ft 482kts
19-Mar-18 16:31 -20.217159 -46.969512 116 34992ft 482kts
19-Mar-18 16:32 -20.275379 -46.841170 116 34997ft 482kts
19-Mar-18 16:33 -20.333390 -46.712303 116 34995ft 481kts
19-Mar-18 16:34 -20.420809 -46.611921 162 34990ft 480kts
19-Mar-18 16:35 -20.553562 -46.608955 167 34986ft 481kts
19-Mar-18 16:36 -20.684210 -46.576548 170 34978ft 481kts
19-Mar-18 16:37 -20.816826 -46.555920 170 34972ft 482kts
19-Mar-18 16:38 -20.949318 -46.534014 170 34968ft 482kts
19-Mar-18 16:39 -21.082503 -46.511960 170 34964ft 483kts
19-Mar-18 16:40 -21.215232 -46.490121 170 34939ft 483kts
19-Mar-18 16:41 -21.348229 -46.468424 170 34947ft 484kts
19-Mar-18 16:42 -21.481634 -46.446607 170 34947ft 484kts
19-Mar-18 16:43 -21.614569 -46.424893 170 34947ft 484kts
19-Mar-18 16:44 -21.747911 -46.403055 170 34956ft 484kts
19-Mar-18 16:45 -21.880793 -46.381218 170 34958ft 483kts
19-Mar-18 16:46 -22.011169 -46.359741 170 33460ft 469kts
19-Mar-18 16:47 -22.140471 -46.335350 169 30754ft 478kts
19-Mar-18 16:48 -22.274017 -46.312768 170 28409ft 481kts
19-Mar-18 16:49 -22.403683 -46.290902 172 26100ft 463kts
19-Mar-18 16:50 -22.530312 -46.285971 179 23852ft 446kts
19-Mar-18 16:51 -22.652382 -46.285067 178 21637ft 432kts
19-Mar-18 16:52 -22.771173 -46.283256 178 19437ft 420kts
19-Mar-18 16:53 -22.886295 -46.281432 178 17250ft 409kts
19-Mar-18 16:54 -22.998323 -46.279649 178 15115ft 397kts
19-Mar-18 16:55 -23.107441 -46.277905 178 13004ft 385kts
19-Mar-18 16:56 -23.211888 -46.278275 189 11516ft 357kts
19-Mar-18 16:57 -23.276896 -46.346287 225 11087ft 309kts
19-Mar-18 16:58 -23.314816 -46.423969 254 10270ft 287kts
19-Mar-18 16:59 -23.330744 -46.507676 257 8649ft 282kts
19-Mar-18 17:00 -23.351731 -46.588529 246 7670ft 265kts
19-Mar-18 17:01 -23.383686 -46.651234 219 7017ft 213kts
19-Mar-18 17:02 -23.431521 -46.633681 139 5573ft 197kts
19-Mar-18 17:03 -23.460664 -46.590536 110 3927ft 155kts
19-Mar-18 17:04 -23.455188 -46.545450 73 3376ft 152kts
19-Mar-18 17:05 -23.442947 -46.501402 73 2774ft 152kts
19-Mar-18 17:06 -23.433991 -46.469290 72 2472ft 44kts
19-Mar-18 17:07 -23.429969 -46.461796 24 2472ft 26kts
19-Mar-18 17:08 -23.428262 -46.466676 252 2472ft 40kts
19-Mar-18 17:09 -23.428885 -46.471010 325 2472ft 0kts
19-Mar-18 17:10 -23.428884 -46.471011 325 2472ft 0kts

Navigation Log

Ident Type
Flight plan parsing failed, navigation log unavailable